Time;durP1;ratioP1;P1;durP2;ratioP2;P2;SDS_P1;SDS_P2;PMS_P1;PMS_P2;Temp;Humidity;BMP_temperature;BMP_pressure;BME280_temperature;BME280_humidity;BME280_pressure;Samples;Min_cycle;Max_cycle;Signal;HPM_P1;HPM_P2
2023/11/01 00:01:36;;;;;;;4.85;1.60;;;;;;;19.56;54.01;100343.84;4987475;28;20513;-72
2023/11/01 00:04:02;;;;;;;4.20;1.20;;;;;;;19.55;54.14;100339.53;4987630;28;20069;-72
2023/11/01 00:06:27;;;;;;;5.53;1.50;;;;;;;19.55;53.94;100331.59;4987596;28;20104;-71
2023/11/01 00:08:52;;;;;;;3.53;1.42;;;;;;;19.54;53.99;100330.78;4987619;28;20026;-72
2023/11/01 00:11:18;;;;;;;3.75;1.30;;;;;;;19.53;54.05;100325.66;4986748;28;20026;-72
2023/11/01 00:13:43;;;;;;;5.22;1.50;;;;;;;19.53;53.98;100323.00;4986884;28;20026;-72
2023/11/01 00:16:09;;;;;;;3.20;1.20;;;;;;;19.54;54.04;100324.69;4986530;28;20026;-72
2023/11/01 00:18:34;;;;;;;7.63;1.63;;;;;;;19.51;53.94;100311.75;4986507;28;20114;-72
2023/11/01 00:21:00;;;;;;;3.22;1.20;;;;;;;19.51;54.09;100317.88;4987351;28;20030;-72
2023/11/01 00:23:25;;;;;;;4.30;1.40;;;;;;;19.51;54.04;100311.75;4985527;28;20041;-71
2023/11/01 00:25:50;;;;;;;3.85;1.40;;;;;;;19.50;54.00;100305.66;4987542;28;20076;-72
2023/11/01 00:28:16;;;;;;;4.32;1.48;;;;;;;19.50;53.85;100303.00;4987220;28;20470;-72
2023/11/01 00:30:41;;;;;;;3.17;1.20;;;;;;;19.49;54.03;100297.88;4987225;28;20478;-72
2023/11/01 00:33:06;;;;;;;4.20;1.35;;;;;;;19.47;53.86;100290.09;4986931;28;20057;-72
2023/11/01 00:35:31;;;;;;;4.15;1.50;;;;;;;19.47;53.93;100290.09;4987003;28;20026;-72
2023/11/01 00:37:58;;;;;;;3.03;1.20;;;;;;;19.48;53.91;100291.72;4987191;28;20050;-72
2023/11/01 00:40:23;;;;;;;3.15;1.20;;;;;;;19.47;53.98;100289.22;4987281;28;20074;-72
2023/11/01 00:42:48;;;;;;;3.75;1.20;;;;;;;19.46;53.83;100288.41;4987097;28;20371;-72
2023/11/01 00:45:14;;;;;;;4.90;1.35;;;;;;;19.46;53.90;100287.59;4987182;28;20030;-72
2023/11/01 00:47:39;;;;;;;3.95;1.30;;;;;;;19.47;53.87;100286.59;4987034;28;20041;-72
2023/11/01 00:50:05;;;;;;;4.28;1.08;;;;;;;19.45;53.92;100285.91;4987056;28;20100;-72
2023/11/01 00:52:31;;;;;;;5.38;1.30;;;;;;;19.45;53.88;100283.28;4987152;28;20109;-72
2023/11/01 00:54:56;;;;;;;4.20;1.42;;;;;;;19.44;53.91;100277.16;4987251;28;20110;-72
2023/11/01 00:57:22;;;;;;;3.97;1.20;;;;;;;19.42;53.91;100275.63;4986918;28;20463;-72
2023/11/01 00:59:47;;;;;;;5.57;1.52;;;;;;;19.43;53.85;100275.50;4987403;28;20026;-71
2023/11/01 01:02:12;;;;;;;4.07;1.20;;;;;;;19.42;53.89;100275.63;4986720;28;20026;-72
2023/11/01 01:04:38;;;;;;;4.00;1.20;;;;;;;19.41;53.87;100269.53;4987173;28;20030;-72
2023/11/01 01:07:03;;;;;;;3.80;1.20;;;;;;;19.40;53.75;100268.69;4986915;28;20264;-72
2023/11/01 01:09:29;;;;;;;5.00;1.30;;;;;;;19.39;53.72;100264.38;4987019;28;20504;-72
2023/11/01 01:11:54;;;;;;;3.78;1.27;;;;;;;19.40;53.72;100267.84;4986323;28;20034;-72
2023/11/01 01:14:19;;;;;;;3.03;1.30;;;;;;;19.37;53.74;100258.41;4986514;28;20025;-72
2023/11/01 01:16:46;;;;;;;4.38;1.40;;;;;;;19.38;53.92;100261.88;4986046;28;20061;-73
2023/11/01 01:19:12;;;;;;;4.60;1.30;;;;;;;19.37;53.92;100249.66;4968243;28;20057;-72
2023/11/01 01:21:37;;;;;;;3.30;1.20;;;;;;;19.36;53.81;100255.94;4985199;28;20043;-72
2023/11/01 01:24:03;;;;;;;4.03;1.23;;;;;;;19.36;54.04;100253.28;4985418;28;20081;-72
2023/11/01 01:26:29;;;;;;;3.90;1.33;;;;;;;19.37;53.93;100247.81;4986121;28;20045;-72
2023/11/01 01:28:55;;;;;;;3.13;1.45;;;;;;;19.35;53.83;100244.50;4987604;28;20034;-72
2023/11/01 01:31:21;;;;;;;4.05;1.38;;;;;;;19.34;53.82;100242.88;4989616;28;20510;-72
2023/11/01 01:33:46;;;;;;;2.53;0.95;;;;;;;19.32;53.84;100231.59;4987930;28;20050;-73
2023/11/01 01:36:12;;;;;;;3.30;1.25;;;;;;;19.34;53.82;100234.09;4989598;28;20687;-73
2023/11/01 01:38:38;;;;;;;3.97;1.20;;;;;;;19.32;53.85;100233.41;4988168;28;20030;-73
2023/11/01 01:41:04;;;;;;;3.60;1.40;;;;;;;19.32;53.90;100220.19;4990053;28;20038;-73
2023/11/01 01:43:29;;;;;;;4.60;1.38;;;;;;;19.32;53.83;100220.19;4990126;28;20114;-73
2023/11/01 01:46:00;;;;;;;3.63;1.40;;;;;;;19.30;53.91;100206.31;4990070;28;20121;-73
2023/11/01 01:48:26;;;;;;;4.15;1.23;;;;;;;19.30;53.91;100204.50;4989969;28;20030;-73
2023/11/01 01:50:51;;;;;;;5.10;1.40;;;;;;;19.31;53.74;100205.31;4990621;28;20045;-71
2023/11/01 01:53:16;;;;;;;3.55;1.30;;;;;;;19.30;53.87;100198.38;4989903;28;20054;-71
2023/11/01 01:55:43;;;;;;;3.38;1.50;;;;;;;19.30;54.00;100193.94;4988750;28;20048;-73
2023/11/01 01:58:09;;;;;;;4.75;1.40;;;;;;;19.28;53.90;100193.25;4989792;28;20034;-73
2023/11/01 02:00:35;;;;;;;4.32;1.40;;;;;;;19.29;53.95;100180.88;4989898;28;20129;-73
2023/11/01 02:03:01;;;;;;;3.03;1.20;;;;;;;19.26;53.74;100179.34;4989750;28;20125;-73
2023/11/01 02:05:27;;;;;;;4.70;1.40;;;;;;;19.28;53.64;100174.75;4989484;28;20050;-73
2023/11/01 02:07:52;;;;;;;3.60;1.30;;;;;;;19.29;53.51;100178.22;4989465;28;20084;-73
2023/11/01 02:10:18;;;;;;;3.03;1.10;;;;;;;19.28;53.89;100177.41;4989477;28;20034;-73
2023/11/01 02:12:43;;;;;;;4.40;1.20;;;;;;;19.26;53.89;100171.41;4989710;28;20030;-73
2023/11/01 02:15:09;;;;;;;2.80;1.00;;;;;;;19.27;53.54;100170.44;4988147;28;20031;-73
2023/11/01 02:17:34;;;;;;;2.92;1.20;;;;;;;19.27;53.45;100164.34;4989317;28;20049;-73
2023/11/01 02:20:01;;;;;;;5.57;1.55;;;;;;;19.26;53.77;100163.50;4989548;28;20026;-73
2023/11/01 02:22:26;;;;;;;3.60;1.30;;;;;;;19.25;53.79;100161.84;4989774;28;20459;-73
2023/11/01 02:24:53;;;;;;;4.60;1.10;;;;;;;19.25;53.78;100159.22;4989666;28;20057;-73
2023/11/01 02:27:18;;;;;;;3.45;1.00;;;;;;;19.25;53.62;100156.56;4989206;28;20026;-73
2023/11/01 02:29:44;;;;;;;3.05;1.10;;;;;;;19.24;53.72;100148.78;4989540;28;20389;-73
2023/11/01 02:32:09;;;;;;;3.85;1.02;;;;;;;19.25;53.67;100142.50;4989082;28;20030;-73
2023/11/01 02:34:35;;;;;;;2.97;1.00;;;;;;;19.24;53.68;100146.97;4989543;28;20145;-73
2023/11/01 02:37:01;;;;;;;5.03;1.23;;;;;;;19.24;53.74;100141.69;4989431;28;20041;-73
2023/11/01 02:39:26;;;;;;;3.45;1.15;;;;;;;19.22;53.72;100130.44;4988830;28;20030;-73
2023/11/01 02:41:52;;;;;;;4.03;1.23;;;;;;;19.23;53.73;100121.53;4988469;28;20100;-73
2023/11/01 02:44:17;;;;;;;3.30;1.43;;;;;;;19.21;53.67;100121.66;4987637;28;20032;-73
2023/11/01 02:46:42;;;;;;;2.78;0.93;;;;;;;19.22;53.74;100119.88;4988105;28;20295;-73
2023/11/01 02:49:07;;;;;;;3.07;1.17;;;;;;;19.22;53.95;100111.94;4988747;28;20054;-73
2023/11/01 02:51:33;;;;;;;4.32;1.05;;;;;;;19.21;53.83;100116.38;4988403;28;20267;-73
2023/11/01 02:53:58;;;;;;;2.83;1.17;;;;;;;19.19;53.82;100105.16;4986573;28;20030;-73
2023/11/01 02:56:24;;;;;;;4.07;1.13;;;;;;;19.21;53.65;100097.91;4988889;28;20033;-73
2023/11/01 02:58:49;;;;;;;3.67;1.10;;;;;;;19.20;53.74;100092.75;4988821;28;20042;-73
2023/11/01 03:01:16;;;;;;;3.40;1.10;;;;;;;19.18;53.93;100085.00;4988674;28;20518;-73
2023/11/01 03:03:42;;;;;;;3.10;0.80;;;;;;;19.19;53.85;100086.66;4988641;28;20034;-73
2023/11/01 03:06:07;;;;;;;4.15;1.40;;;;;;;19.18;53.65;100079.72;4988768;28;20073;-73
2023/11/01 03:08:32;;;;;;;3.10;1.23;;;;;;;19.19;53.94;100081.38;4988520;28;20042;-73
2023/11/01 03:10:58;;;;;;;3.17;0.87;;;;;;;19.16;53.76;100073.75;4988760;28;20026;-73
2023/11/01 03:13:23;;;;;;;4.28;1.23;;;;;;;19.15;54.09;100072.09;4988341;28;20326;-73
2023/11/01 03:15:49;;;;;;;2.60;0.98;;;;;;;19.17;53.86;100074.59;4988374;28;20061;-73
2023/11/01 03:18:14;;;;;;;3.67;1.13;;;;;;;19.16;53.76;100068.47;4987555;28;20040;-73
2023/11/01 03:20:39;;;;;;;2.15;0.90;;;;;;;19.17;53.83;100075.41;4988580;28;20089;-72
2023/11/01 03:23:04;;;;;;;2.97;1.00;;;;;;;19.17;54.07;100064.03;4988201;28;20489;-73
2023/11/01 03:25:30;;;;;;;2.88;1.33;;;;;;;19.17;53.94;100066.66;4988232;28;20302;-73
2023/11/01 03:27:55;;;;;;;3.70;1.00;;;;;;;19.15;53.71;100072.09;4988011;28;20490;-72
2023/11/01 03:30:22;;;;;;;3.35;0.93;;;;;;;19.16;53.81;100073.75;4988087;28;20478;-73
2023/11/01 03:32:48;;;;;;;2.75;0.90;;;;;;;19.16;53.63;100076.38;4988267;28;20033;-73
2023/11/01 03:35:14;;;;;;;2.42;0.90;;;;;;;19.13;53.83;100060.84;4988300;28;20034;-73
2023/11/01 03:37:40;;;;;;;1.58;0.73;;;;;;;19.15;53.90;100060.69;4988224;28;20030;-73
2023/11/01 03:40:06;;;;;;;2.10;0.80;;;;;;;19.14;53.77;100061.69;4988063;28;20486;-72
2023/11/01 03:42:32;;;;;;;2.38;0.85;;;;;;;19.14;53.93;100059.06;4987938;28;20030;-73
2023/11/01 03:44:57;;;;;;;2.63;0.90;;;;;;;19.15;53.89;100060.69;4988141;28;20049;-73
2023/11/01 03:47:22;;;;;;;2.25;0.90;;;;;;;19.12;54.08;100056.56;4988280;28;20022;-73
2023/11/01 03:49:47;;;;;;;3.78;1.20;;;;;;;19.12;53.92;100056.56;4987982;28;20026;-72
2023/11/01 03:52:13;;;;;;;1.97;0.80;;;;;;;19.12;53.87;100059.19;4987146;28;20114;-72
2023/11/01 03:54:38;;;;;;;2.13;0.77;;;;;;;19.12;53.92;100053.91;4987759;28;20256;-73
2023/11/01 03:57:04;;;;;;;3.17;1.00;;;;;;;19.11;53.93;100054.06;4987791;28;20045;-72
2023/11/01 03:59:30;;;;;;;2.65;0.88;;;;;;;19.11;53.86;100052.25;4987535;28;20053;-72
2023/11/01 04:01:56;;;;;;;3.35;0.95;;;;;;;19.12;53.80;100056.56;4987888;28;20030;-73
2023/11/01 04:04:21;;;;;;;3.47;1.15;;;;;;;19.11;53.98;100051.44;4987633;28;20509;-73
2023/11/01 04:06:46;;;;;;;2.28;0.98;;;;;;;19.12;53.92;100053.06;4987928;28;20425;-73
2023/11/01 04:09:12;;;;;;;2.28;1.00;;;;;;;19.10;53.96;100057.69;4987579;28;20454;-73
2023/11/01 04:11:37;;;;;;;3.08;0.90;;;;;;;19.11;53.91;100059.34;4987528;28;20747;-72
2023/11/01 04:14:03;;;;;;;2.95;0.90;;;;;;;19.11;54.23;100044.31;4987147;28;20538;-73
2023/11/01 04:16:28;;;;;;;1.90;0.85;;;;;;;19.10;53.89;100055.84;4987563;28;20042;-73
2023/11/01 04:18:54;;;;;;;1.95;0.90;;;;;;;19.11;54.07;100059.34;4987448;28;20034;-73
2023/11/01 04:21:20;;;;;;;2.00;0.80;;;;;;;19.09;54.11;100051.56;4987617;28;20030;-73
2023/11/01 04:23:45;;;;;;;1.65;0.80;;;;;;;19.09;54.06;100051.56;4987578;28;20027;-73
2023/11/01 04:26:10;;;;;;;2.13;0.80;;;;;;;19.09;54.07;100054.22;4987110;28;20138;-72
2023/11/01 04:28:36;;;;;;;1.67;0.80;;;;;;;19.10;53.95;100055.03;4986087;28;20081;-73
2023/11/01 04:31:02;;;;;;;3.13;0.70;;;;;;;19.08;53.93;100052.53;4987015;28;20062;-73
2023/11/01 04:33:27;;;;;;;3.03;0.90;;;;;;;19.09;54.21;100053.38;4986571;28;20046;-73
2023/11/01 04:35:56;;;;;;;3.05;0.90;;;;;;;19.08;54.14;100052.53;4986793;28;20049;-73
2023/11/01 04:38:21;;;;;;;2.90;0.95;;;;;;;19.08;54.17;100051.72;4986279;28;20439;-73
2023/11/01 04:40:49;;;;;;;3.83;0.80;;;;;;;19.08;54.00;100052.53;4986603;28;20112;-73
2023/11/01 04:43:15;;;;;;;4.65;0.93;;;;;;;19.08;54.07;100057.81;4986696;28;20018;-72
2023/11/01 04:45:40;;;;;;;2.22;0.75;;;;;;;19.07;54.06;100047.41;4969241;28;20393;-72
2023/11/01 04:48:05;;;;;;;1.55;0.70;;;;;;;19.07;54.19;100053.50;4986896;28;20035;-73
2023/11/01 04:50:31;;;;;;;2.72;1.00;;;;;;;19.07;54.31;100048.22;4985523;28;20043;-73
2023/11/01 04:52:57;;;;;;;2.58;0.90;;;;;;;19.08;54.09;100049.91;4986508;28;20038;-72
2023/11/01 04:55:22;;;;;;;2.90;0.70;;;;;;;19.08;54.22;100043.78;4985797;28;20043;-73
2023/11/01 04:57:49;;;;;;;3.63;1.00;;;;;;;19.06;54.27;100040.47;4986923;28;20399;-72
2023/11/01 05:00:17;;;;;;;1.75;0.70;;;;;;;19.06;54.34;100040.47;4987201;28;20042;-73
2023/11/01 05:02:48;;;;;;;4.22;1.45;;;;;;;19.06;54.39;100043.94;4988439;28;20042;-73
2023/11/01 05:05:14;;;;;;;2.75;0.82;;;;;;;19.06;54.59;100038.66;4991019;28;20542;-72
2023/11/01 05:07:39;;;;;;;3.00;0.90;;;;;;;19.06;54.22;100043.94;4991289;28;20110;-73
2023/11/01 05:10:06;;;;;;;4.30;1.05;;;;;;;19.06;54.17;100049.22;4991340;28;20106;-73
2023/11/01 05:12:32;;;;;;;3.83;1.13;;;;;;;19.05;54.07;100044.09;4990878;28;20034;-73
2023/11/01 05:14:57;;;;;;;3.72;1.20;;;;;;;19.03;54.32;100033.69;4991112;28;20057;-73
2023/11/01 05:17:23;;;;;;;4.28;1.02;;;;;;;19.03;54.43;100034.50;4990937;28;20042;-73
2023/11/01 05:19:48;;;;;;;4.65;1.30;;;;;;;19.04;54.43;100027.41;4990983;28;20125;-73
2023/11/01 05:22:13;;;;;;;5.47;1.10;;;;;;;19.02;54.28;100024.91;4990944;28;20109;-73
2023/11/01 05:24:39;;;;;;;3.25;1.30;;;;;;;19.01;54.46;100020.63;4990743;28;20164;-72
2023/11/01 05:27:07;;;;;;;3.60;1.00;;;;;;;19.02;54.33;100024.09;4990416;28;20041;-73
2023/11/01 05:29:32;;;;;;;2.65;1.05;;;;;;;19.01;54.61;100023.28;4990658;28;20030;-73
2023/11/01 05:31:57;;;;;;;2.70;0.80;;;;;;;19.02;54.35;100021.44;4987847;28;20356;-72
2023/11/01 05:34:23;;;;;;;4.70;1.00;;;;;;;19.02;54.41;100024.91;4989483;28;20434;-73
2023/11/01 05:36:50;;;;;;;3.35;0.90;;;;;;;19.01;54.41;100017.16;4990573;28;20334;-73
2023/11/01 05:39:15;;;;;;;3.13;0.90;;;;;;;19.01;54.54;100012.72;4990290;28;20054;-73
2023/11/01 05:41:40;;;;;;;3.42;0.90;;;;;;;19.01;54.54;100009.25;4990392;28;20045;-73
2023/11/01 05:44:06;;;;;;;3.55;1.10;;;;;;;19.01;54.36;100012.72;4990761;28;20045;-72
2023/11/01 05:46:31;;;;;;;4.43;0.90;;;;;;;19.03;54.58;100012.56;4973531;28;20137;-73
2023/11/01 05:48:56;;;;;;;3.60;1.00;;;;;;;19.01;54.26;100014.53;4990337;28;20153;-72
2023/11/01 05:51:22;;;;;;;4.47;0.98;;;;;;;19.00;54.35;100010.22;4990343;28;20268;-73
2023/11/01 05:53:47;;;;;;;2.17;0.85;;;;;;;18.99;54.43;100006.75;4989650;28;20073;-73
2023/11/01 05:56:12;;;;;;;4.25;1.05;;;;;;;18.99;54.38;100009.41;4990400;28;20088;-72
2023/11/01 05:58:38;;;;;;;2.93;1.00;;;;;;;18.99;54.46;100006.75;4990181;28;20038;-72
2023/11/01 06:01:04;;;;;;;3.63;1.17;;;;;;;19.01;54.41;100009.25;4990296;28;20322;-72
2023/11/01 06:03:30;;;;;;;3.15;0.85;;;;;;;18.97;54.60;100008.69;4987132;28;20498;-72
2023/11/01 06:05:57;;;;;;;2.78;1.00;;;;;;;18.98;54.51;100010.38;4989799;28;20059;-73
2023/11/01 06:08:23;;;;;;;4.10;1.00;;;;;;;18.98;54.33;100013.00;4990139;28;20022;-73
2023/11/01 06:10:48;;;;;;;3.03;0.90;;;;;;;18.97;54.54;100007.88;4990192;28;20366;-73
2023/11/01 06:13:14;;;;;;;4.43;1.08;;;;;;;18.98;54.35;100010.38;4989804;28;20034;-73
2023/11/01 06:15:39;;;;;;;3.63;1.02;;;;;;;18.97;54.46;100005.22;4988719;28;20097;-72
2023/11/01 06:18:05;;;;;;;3.03;0.90;;;;;;;18.95;54.70;100008.03;4989939;28;20533;-70
2023/11/01 06:20:31;;;;;;;5.95;1.27;;;;;;;18.93;54.56;100009.16;4989842;28;20379;-73
2023/11/01 06:22:58;;;;;;;3.20;1.00;;;;;;;18.94;54.53;100008.16;4989666;28;20028;-72
2023/11/01 06:25:23;;;;;;;3.00;1.10;;;;;;;18.95;54.51;100007.19;4989549;28;20376;-71
2023/11/01 06:27:48;;;;;;;4.68;1.40;;;;;;;18.94;54.74;100014.28;4989575;28;20467;-72
2023/11/01 06:30:13;;;;;;;4.88;1.38;;;;;;;18.95;54.54;100012.47;4989614;28;20108;-72
2023/11/01 06:32:39;;;;;;;4.13;0.93;;;;;;;18.96;55.03;100006.19;4989493;28;20026;-72
2023/11/01 06:35:05;;;;;;;3.00;1.17;;;;;;;18.94;54.83;100011.63;4989156;28;20141;-72
2023/11/01 06:37:30;;;;;;;4.18;0.98;;;;;;;18.93;54.92;100006.50;4989059;28;20046;-72
2023/11/01 06:39:55;;;;;;;4.57;1.23;;;;;;;18.95;55.01;100008.03;4988828;28;20030;-72
2023/11/01 06:42:21;;;;;;;2.92;1.00;;;;;;;18.96;54.86;100009.69;4989229;28;20356;-72
2023/11/01 06:44:46;;;;;;;3.75;1.02;;;;;;;18.95;55.31;100012.47;4989278;28;20026;-72
2023/11/01 06:47:11;;;;;;;3.38;1.00;;;;;;;18.96;55.25;100022.91;4989126;28;20453;-71
2023/11/01 06:49:39;;;;;;;5.13;1.30;;;;;;;18.95;55.42;100015.13;4988742;28;20034;-72
2023/11/01 06:52:08;;;;;;;4.03;1.17;;;;;;;18.96;55.76;100014.97;4989256;28;20105;-72
2023/11/01 06:54:36;;;;;;;3.10;0.98;;;;;;;18.99;55.69;100014.69;4989019;28;20064;-72
2023/11/01 06:57:02;;;;;;;3.13;1.00;;;;;;;19.03;55.62;100012.56;4988899;28;20030;-73
2023/11/01 06:59:27;;;;;;;3.35;0.98;;;;;;;19.03;55.86;100015.19;4988780;28;20049;-72
2023/11/01 07:01:53;;;;;;;4.38;1.10;;;;;;;19.05;55.82;100023.78;4988588;28;20061;-72
2023/11/01 07:04:18;;;;;;;5.43;1.17;;;;;;;19.07;56.10;100021.81;4988711;28;20037;-71
2023/11/01 07:06:43;;;;;;;4.38;0.98;;;;;;;19.10;55.99;100020.69;4988899;28;20099;-71
2023/11/01 07:09:09;;;;;;;4.10;1.10;;;;;;;19.12;56.04;100016.09;4988264;28;20448;-71
2023/11/01 07:11:35;;;;;;;3.15;1.02;;;;;;;19.14;55.87;100014.16;4988559;28;20330;-70
2023/11/01 07:14:00;;;;;;;5.47;1.00;;;;;;;19.13;56.16;100021.22;4988383;28;20077;-71
2023/11/01 07:16:26;;;;;;;3.90;1.02;;;;;;;19.16;56.21;100022.75;4988739;28;20030;-72
2023/11/01 07:18:51;;;;;;;4.78;1.38;;;;;;;19.17;56.23;100017.31;4988330;28;20026;-70
2023/11/01 07:21:16;;;;;;;5.80;1.13;;;;;;;19.18;56.25;100018.13;4988609;28;20129;-71
2023/11/01 07:23:43;;;;;;;3.92;1.00;;;;;;;19.17;56.42;100017.31;4988185;28;20462;-72
2023/11/01 07:26:09;;;;;;;3.60;1.13;;;;;;;19.20;56.21;100026.72;4988648;28;20022;-72
2023/11/01 07:28:34;;;;;;;4.57;0.82;;;;;;;19.20;56.32;100024.09;4987875;28;20041;-72
2023/11/01 07:31:00;;;;;;;5.00;1.20;;;;;;;19.21;56.59;100023.13;4987618;28;20022;-71
2023/11/01 07:33:25;;;;;;;4.00;0.95;;;;;;;19.22;56.31;100024.78;4987609;28;20145;-70
2023/11/01 07:35:50;;;;;;;3.20;1.10;;;;;;;19.21;56.35;100021.28;4987496;28;20113;-71
2023/11/01 07:38:16;;;;;;;4.80;1.20;;;;;;;19.23;56.37;100021.13;4987570;28;20077;-72
2023/11/01 07:40:41;;;;;;;5.28;1.20;;;;;;;19.23;56.33;100015.03;4986398;28;20738;-70
2023/11/01 07:43:06;;;;;;;3.50;1.00;;;;;;;19.23;56.22;100013.22;4987005;28;20022;-71
2023/11/01 07:45:31;;;;;;;6.60;1.27;;;;;;;19.21;56.42;100013.38;4988190;28;20272;-69
2023/11/01 07:47:57;;;;;;;3.95;0.98;;;;;;;19.22;56.32;100011.56;4987809;28;20070;-71
2023/11/01 07:50:24;;;;;;;3.22;0.90;;;;;;;19.23;56.29;100009.75;4987743;28;20389;-69
2023/11/01 07:52:49;;;;;;;6.22;1.05;;;;;;;19.22;56.35;100008.94;4988097;28;20073;-71
2023/11/01 07:55:15;;;;;;;5.07;1.17;;;;;;;19.23;56.21;100004.47;4984980;28;20254;-72
2023/11/01 07:57:40;;;;;;;5.28;1.10;;;;;;;19.30;55.91;100013.47;4985003;28;20458;-71
2023/11/01 08:00:06;;;;;;;5.50;1.40;;;;;;;19.34;56.08;100006.88;4986299;28;20109;-70
2023/11/01 08:02:32;;;;;;;2.97;0.93;;;;;;;19.31;56.06;100007.19;4984706;28;20435;-70
2023/11/01 08:04:58;;;;;;;3.20;0.90;;;;;;;19.29;56.01;99999.41;4987018;28;20412;-69
2023/11/01 08:07:24;;;;;;;4.28;0.93;;;;;;;19.30;55.69;99998.44;4985383;28;20506;-69
2023/11/01 08:09:51;;;;;;;5.68;1.60;;;;;;;19.28;55.87;99999.56;4986021;28;20069;-69
2023/11/01 08:12:20;;;;;;;5.80;1.90;;;;;;;19.29;55.83;99993.31;5012338;28;20366;-72
2023/11/01 08:14:45;;;;;;;4.30;1.25;;;;;;;19.33;55.88;99997.31;4986247;28;20034;-71
2023/11/01 08:17:10;;;;;;;7.00;1.50;;;;;;;19.33;55.86;99992.84;4986596;28;20022;-69
2023/11/01 08:19:37;;;;;;;5.40;1.20;;;;;;;19.34;55.91;99998.94;4986316;28;20458;-68
2023/11/01 08:22:03;;;;;;;5.65;1.00;;;;;;;19.32;55.91;99998.28;4983822;28;20053;-72
2023/11/01 08:24:29;;;;;;;7.45;1.17;;;;;;;19.33;55.77;99981.47;4984238;28;20026;-72
2023/11/01 08:26:54;;;;;;;2.95;1.02;;;;;;;19.38;55.73;99995.84;4984135;28;20068;-71
2023/11/01 08:29:19;;;;;;;4.97;0.85;;;;;;;19.39;55.68;100005.44;4985030;28;20149;-72
2023/11/01 08:31:45;;;;;;;5.43;1.13;;;;;;;19.39;55.60;100002.81;4984936;28;20394;-72
2023/11/01 08:34:10;;;;;;;4.78;1.25;;;;;;;19.37;55.78;99999.47;4986466;28;20055;-72
2023/11/01 08:36:36;;;;;;;4.95;1.08;;;;;;;19.32;56.16;99987.72;4985751;28;20038;-73
2023/11/01 08:39:01;;;;;;;3.85;1.00;;;;;;;19.32;56.22;99995.63;4986127;28;20042;-71
2023/11/01 08:41:26;;;;;;;5.35;1.00;;;;;;;19.27;56.31;99987.34;4986338;28;20049;-72
2023/11/01 08:43:53;;;;;;;5.35;1.10;;;;;;;19.26;56.55;99990.97;4985772;28;20038;-71
2023/11/01 08:46:18;;;;;;;6.57;1.10;;;;;;;19.25;56.49;99989.28;4985909;28;20026;-68
2023/11/01 08:48:44;;;;;;;6.30;1.17;;;;;;;19.28;56.46;99989.00;4985662;28;20029;-73
2023/11/01 08:51:10;;;;;;;3.78;0.95;;;;;;;19.30;56.39;99994.97;4984315;28;20113;-71
2023/11/01 08:53:36;;;;;;;7.18;1.42;;;;;;;19.29;56.33;99990.66;4986001;28;20076;-71
2023/11/01 08:56:02;;;;;;;6.72;1.23;;;;;;;19.30;56.32;99977.28;4984250;28;20128;-71
2023/11/01 08:58:28;;;;;;;4.28;1.00;;;;;;;19.31;56.13;99981.59;4984677;28;20077;-71
2023/11/01 09:00:53;;;;;;;5.20;1.27;;;;;;;19.33;56.75;99974.34;4985680;28;20073;-72
2023/11/01 09:03:22;;;;;;;5.25;1.10;;;;;;;19.30;56.49;99971.19;4986136;28;20296;-73
2023/11/01 09:05:47;;;;;;;7.65;1.00;;;;;;;19.28;56.50;99968.72;4985431;28;20026;-73
2023/11/01 09:08:13;;;;;;;4.30;1.23;;;;;;;19.27;56.67;99968.84;4985492;28;20036;-70
2023/11/01 09:10:38;;;;;;;3.40;1.20;;;;;;;19.28;56.53;99960.78;4986078;28;20041;-72
2023/11/01 09:13:03;;;;;;;4.20;0.98;;;;;;;19.27;56.48;99955.66;4985975;28;20282;-72
2023/11/01 09:15:29;;;;;;;4.95;1.17;;;;;;;19.28;56.48;99957.28;4985728;28;20042;-72
2023/11/01 09:17:54;;;;;;;5.85;1.30;;;;;;;19.28;56.62;99954.66;4985226;28;20061;-71
2023/11/01 09:20:19;;;;;;;5.77;1.30;;;;;;;19.25;56.74;99949.66;4985215;28;20046;-72
2023/11/01 09:22:45;;;;;;;5.57;1.20;;;;;;;19.27;56.60;99953.81;4985827;28;20311;-72
2023/11/01 09:25:10;;;;;;;5.05;1.10;;;;;;;19.24;56.64;99950.66;4985878;28;20043;-71
2023/11/01 09:27:35;;;;;;;3.65;0.93;;;;;;;19.23;56.73;99941.91;4985455;28;20108;-71
2023/11/01 09:30:01;;;;;;;3.72;0.80;;;;;;;19.19;56.65;99932.63;4986148;28;20475;-72
2023/11/01 09:32:26;;;;;;;7.10;1.30;;;;;;;19.20;56.70;99939.56;4986108;28;20034;-69
2023/11/01 09:34:51;;;;;;;3.97;1.00;;;;;;;19.23;56.50;99944.53;4985741;28;20507;-70
2023/11/01 09:37:17;;;;;;;4.87;1.40;;;;;;;19.21;56.43;99942.03;4986213;28;20264;-70
2023/11/01 09:39:42;;;;;;;3.90;1.02;;;;;;;19.21;56.63;99936.75;4986062;28;20299;-72
2023/11/01 09:42:15;;;;;;;4.70;1.00;;;;;;;19.27;56.42;99937.16;4985739;28;20039;-71
2023/11/01 09:44:40;;;;;;;6.55;1.10;;;;;;;19.27;56.67;99942.44;4985360;28;20256;-71
2023/11/01 09:47:05;;;;;;;4.38;1.20;;;;;;;19.26;56.54;99938.13;4984592;28;20482;-72
2023/11/01 09:49:31;;;;;;;4.40;1.20;;;;;;;19.24;56.51;99948.84;4985709;28;20030;-71
2023/11/01 09:52:00;;;;;;;3.88;1.08;;;;;;;19.23;56.95;99939.25;4987237;28;20042;-71
2023/11/01 09:54:25;;;;;;;5.18;1.15;;;;;;;19.20;56.73;99931.63;4988410;28;20098;-70
2023/11/01 09:56:53;;;;;;;4.85;1.10;;;;;;;19.21;56.79;99931.47;4989199;28;20022;-71
2023/11/01 09:59:18;;;;;;;4.22;0.90;;;;;;;19.19;56.91;99930.81;4989119;28;20577;-71
2023/11/01 10:01:44;;;;;;;6.38;1.00;;;;;;;19.20;56.88;99929.84;4989228;28;20109;-71
2023/11/01 10:04:09;;;;;;;4.55;0.98;;;;;;;19.21;56.85;99926.19;4987841;28;20038;-70
2023/11/01 10:06:36;;;;;;;3.45;0.90;;;;;;;19.21;56.79;99920.09;4989383;28;20463;-72
2023/11/01 10:09:02;;;;;;;3.40;1.00;;;;;;;19.21;56.63;99909.53;4988831;28;20073;-70
2023/11/01 10:11:28;;;;;;;3.80;1.00;;;;;;;19.18;56.90;99913.31;4989330;28;20034;-71
2023/11/01 10:13:54;;;;;;;3.38;1.00;;;;;;;19.20;56.87;99910.50;4988941;28;20062;-71
2023/11/01 10:16:19;;;;;;;3.53;1.10;;;;;;;19.20;56.83;99908.72;4988903;28;20054;-72
2023/11/01 10:18:46;;;;;;;5.65;0.95;;;;;;;19.18;56.90;99907.19;4988784;28;20039;-70
2023/11/01 10:21:12;;;;;;;3.08;0.85;;;;;;;19.20;56.88;99898.16;4988881;28;20040;-73
2023/11/01 10:23:37;;;;;;;3.05;0.88;;;;;;;19.19;56.86;99903.59;4988801;28;20026;-71
2023/11/01 10:26:02;;;;;;;3.27;0.87;;;;;;;19.20;56.73;99900.78;4989077;28;20049;-71
2023/11/01 10:28:34;;;;;;;5.30;0.98;;;;;;;19.20;56.88;99897.31;4988963;28;20260;-72
2023/11/01 10:30:59;;;;;;;2.78;0.80;;;;;;;19.23;56.99;99897.00;4988608;28;20033;-72
2023/11/01 10:33:25;;;;;;;5.13;1.20;;;;;;;19.23;56.83;99885.59;4987992;28;20469;-71
2023/11/01 10:36:00;;;;;;;4.32;1.02;;;;;;;19.19;56.91;99883.28;4988748;28;20554;-73
2023/11/01 10:38:28;;;;;;;5.30;1.17;;;;;;;19.24;56.90;99882.00;4987115;28;20052;-72
2023/11/01 10:40:57;;;;;;;3.75;1.15;;;;;;;19.21;56.85;99881.28;4988169;28;20030;-71
2023/11/01 10:43:26;;;;;;;4.75;1.20;;;;;;;19.20;56.99;99873.53;4988571;28;20065;-71
2023/11/01 10:45:52;;;;;;;4.07;1.08;;;;;;;19.23;57.05;99877.69;4988051;28;20030;-70
2023/11/01 10:48:19;;;;;;;3.90;1.02;;;;;;;19.21;56.78;99868.09;4988876;28;20018;-71
2023/11/01 10:50:44;;;;;;;8.18;1.13;;;;;;;19.24;56.70;99864.31;4988256;28;20030;-71
2023/11/01 10:53:11;;;;;;;5.18;1.05;;;;;;;19.24;56.90;99860.88;4988134;28;20168;-70
2023/11/01 10:55:39;;;;;;;6.03;1.20;;;;;;;19.24;56.69;99855.56;4988252;28;20026;-70
2023/11/01 10:58:06;;;;;;;4.70;1.02;;;;;;;19.23;56.84;99843.34;4988230;28;20053;-70
2023/11/01 11:00:47;;;;;;;4.32;0.93;;;;;;;19.22;56.71;99837.25;4987753;28;20127;-71
2023/11/01 11:03:46;;;;;;;4.47;1.08;;;;;;;19.22;56.69;99834.59;4988459;28;20022;-73
2023/11/01 11:06:16;;;;;;;5.63;1.48;;;;;;;19.25;56.63;99836.09;4988187;28;20030;-72
2023/11/01 11:08:42;;;;;;;3.90;1.23;;;;;;;19.25;56.62;99823.72;4988185;28;20026;-72
2023/11/01 11:11:15;;;;;;;5.30;1.10;;;;;;;19.23;56.59;99828.31;4988017;28;20035;-72
2023/11/01 11:13:42;;;;;;;5.03;1.08;;;;;;;19.25;56.28;99823.72;4987875;28;20061;-72
2023/11/01 11:16:12;;;;;;;3.75;0.88;;;;;;;19.29;56.68;99824.22;4988004;28;20079;-69
2023/11/01 11:18:44;;;;;;;5.47;1.10;;;;;;;19.31;56.54;99806.41;4987404;28;20065;-70
2023/11/01 11:21:44;;;;;;;3.70;0.95;;;;;;;19.34;56.70;99809.59;4987788;28;20036;-71